Strassen, Luxembourg
Current Conditions -  °F | °C
As of 5:20 PM on Thursday 29 Jan 2015 (Local Time) from ELLX Reporting Station
Light Snow Light Snow  
Wind Chill: 26°   Ceiling: 600
Heat Index: 34°   Visibility: 4mi
Dew Point: 34°   Wind: 10mph
Humidity: 100%   Direction: 210°SSW
Pressure: 28.97"   Gusts: NA
Location:  49.62°N, 6.07°E
Report Text: ELLX 291620Z 21009KT 180V240 6000 -RASN SCT004 BKN006 01/01 Q0981 RERA NOSIG
Loading
Personal Weather Stations






























Interactive Weather Map New forecast layout! Learn more

10-Day Weather Forecast

Advertisements
Track Severe Weather on mobile